Fairmount Heights, Maryland
Current Conditions -  °F | °C
As of 1:58 AM on Tuesday 21 Oct 2014 (Local Time) from KADW Reporting Station
Overcast Overcast  
Wind Chill: 55°   Ceiling: 8000
Heat Index: 55°   Visibility: 10mi
Dew Point: 48°   Wind: 8mph
Humidity: 77%   Direction: 170°S
Pressure: 29.89"   Gusts: NA
Location:  38.8854°N, 76.8965°W
Report Text: KADW 210558Z AUTO 17007KT 10SM OVC080 13/09 A2989 RMK AO2 DZB0501E0521 SLP128 P0000 60000 T01270088 10135 20116 57022 $
Loading
Personal Weather Stations






























Interactive Weather Map New forecast layout! Learn more

10-Day Weather Forecast

Advertisements
Track Severe Weather on mobile